sensor_id;sensor_type;location;lat;lon;timestamp;P1;durP1;ratioP1;P2;durP2;ratioP2
33579;SDS011;19909;43.644;-79.438;2023-09-30T00:02:19;2.65;;;2.38;;
33579;SDS011;19909;43.644;-79.438;2023-09-30T00:04:46;2.80;;;2.50;;
33579;SDS011;19909;43.644;-79.438;2023-09-30T00:07:12;2.22;;;2.03;;
33579;SDS011;19909;43.644;-79.438;2023-09-30T00:09:38;2.28;;;1.95;;
33579;SDS011;19909;43.644;-79.438;2023-09-30T00:12:05;3.13;;;2.20;;
33579;SDS011;19909;43.644;-79.438;2023-09-30T00:14:32;2.50;;;2.20;;
33579;SDS011;19909;43.644;-79.438;2023-09-30T00:16:58;3.40;;;2.30;;
33579;SDS011;19909;43.644;-79.438;2023-09-30T00:19:25;2.65;;;2.17;;
33579;SDS011;19909;43.644;-79.438;2023-09-30T00:21:51;3.20;;;2.30;;
33579;SDS011;19909;43.644;-79.438;2023-09-30T00:24:17;4.03;;;2.58;;
33579;SDS011;19909;43.644;-79.438;2023-09-30T00:26:43;3.13;;;2.33;;
33579;SDS011;19909;43.644;-79.438;2023-09-30T00:29:09;3.50;;;2.55;;
33579;SDS011;19909;43.644;-79.438;2023-09-30T00:31:36;2.42;;;2.13;;
33579;SDS011;19909;43.644;-79.438;2023-09-30T00:34:02;2.92;;;2.58;;
33579;SDS011;19909;43.644;-79.438;2023-09-30T00:36:28;2.53;;;2.17;;
33579;SDS011;19909;43.644;-79.438;2023-09-30T00:38:54;3.03;;;2.72;;
33579;SDS011;19909;43.644;-79.438;2023-09-30T00:41:20;4.18;;;2.92;;
33579;SDS011;19909;43.644;-79.438;2023-09-30T00:43:46;3.63;;;2.95;;
33579;SDS011;19909;43.644;-79.438;2023-09-30T00:48:48;3.80;;;2.63;;
33579;SDS011;19909;43.644;-79.438;2023-09-30T00:51:14;3.83;;;2.80;;
33579;SDS011;19909;43.644;-79.438;2023-09-30T00:53:41;4.68;;;3.33;;
33579;SDS011;19909;43.644;-79.438;2023-09-30T00:56:07;4.13;;;2.88;;
33579;SDS011;19909;43.644;-79.438;2023-09-30T00:58:34;2.75;;;2.55;;
33579;SDS011;19909;43.644;-79.438;2023-09-30T01:01:03;3.72;;;2.90;;
33579;SDS011;19909;43.644;-79.438;2023-09-30T01:03:30;3.35;;;2.80;;
33579;SDS011;19909;43.644;-79.438;2023-09-30T01:05:56;4.65;;;3.00;;
33579;SDS011;19909;43.644;-79.438;2023-09-30T01:08:22;3.88;;;3.13;;
33579;SDS011;19909;43.644;-79.438;2023-09-30T01:10:48;5.70;;;3.10;;
33579;SDS011;19909;43.644;-79.438;2023-09-30T01:13:16;3.70;;;3.10;;
33579;SDS011;19909;43.644;-79.438;2023-09-30T01:15:42;5.20;;;3.38;;
33579;SDS011;19909;43.644;-79.438;2023-09-30T01:18:08;4.63;;;3.30;;
33579;SDS011;19909;43.644;-79.438;2023-09-30T01:20:34;4.07;;;3.42;;
33579;SDS011;19909;43.644;-79.438;2023-09-30T01:23:01;5.47;;;3.28;;
33579;SDS011;19909;43.644;-79.438;2023-09-30T01:25:28;4.88;;;3.83;;
33579;SDS011;19909;43.644;-79.438;2023-09-30T01:27:55;4.72;;;3.70;;
33579;SDS011;19909;43.644;-79.438;2023-09-30T01:30:25;5.38;;;4.72;;
33579;SDS011;19909;43.644;-79.438;2023-09-30T01:32:51;4.13;;;3.70;;
33579;SDS011;19909;43.644;-79.438;2023-09-30T01:35:17;6.13;;;4.30;;
33579;SDS011;19909;43.644;-79.438;2023-09-30T01:37:43;22.90;;;14.07;;
33579;SDS011;19909;43.644;-79.438;2023-09-30T01:40:09;28.88;;;18.33;;
33579;SDS011;19909;43.644;-79.438;2023-09-30T01:42:36;13.98;;;9.30;;
33579;SDS011;19909;43.644;-79.438;2023-09-30T01:45:03;9.88;;;7.40;;
33579;SDS011;19909;43.644;-79.438;2023-09-30T01:47:29;11.93;;;7.38;;
33579;SDS011;19909;43.644;-79.438;2023-09-30T01:49:55;9.95;;;7.10;;
33579;SDS011;19909;43.644;-79.438;2023-09-30T01:52:22;11.25;;;8.63;;
33579;SDS011;19909;43.644;-79.438;2023-09-30T01:54:48;12.50;;;8.35;;
33579;SDS011;19909;43.644;-79.438;2023-09-30T01:57:14;14.18;;;9.02;;
33579;SDS011;19909;43.644;-79.438;2023-09-30T01:59:40;13.15;;;8.73;;
33579;SDS011;19909;43.644;-79.438;2023-09-30T02:02:06;13.02;;;9.05;;
33579;SDS011;19909;43.644;-79.438;2023-09-30T02:04:33;13.15;;;8.85;;
33579;SDS011;19909;43.644;-79.438;2023-09-30T02:06:59;11.88;;;8.73;;
33579;SDS011;19909;43.644;-79.438;2023-09-30T02:09:25;14.65;;;10.65;;
33579;SDS011;19909;43.644;-79.438;2023-09-30T02:11:51;11.38;;;8.20;;
33579;SDS011;19909;43.644;-79.438;2023-09-30T02:14:17;11.85;;;8.63;;
33579;SDS011;19909;43.644;-79.438;2023-09-30T02:16:44;11.23;;;8.45;;
33579;SDS011;19909;43.644;-79.438;2023-09-30T02:19:10;11.30;;;8.73;;
33579;SDS011;19909;43.644;-79.438;2023-09-30T02:21:36;11.48;;;8.23;;
33579;SDS011;19909;43.644;-79.438;2023-09-30T02:24:02;10.40;;;8.13;;
33579;SDS011;19909;43.644;-79.438;2023-09-30T02:26:28;12.25;;;8.68;;
33579;SDS011;19909;43.644;-79.438;2023-09-30T02:28:54;12.65;;;8.45;;
33579;SDS011;19909;43.644;-79.438;2023-09-30T02:31:21;10.20;;;8.18;;
33579;SDS011;19909;43.644;-79.438;2023-09-30T02:33:49;12.43;;;8.43;;
33579;SDS011;19909;43.644;-79.438;2023-09-30T02:36:15;11.80;;;8.68;;
33579;SDS011;19909;43.644;-79.438;2023-09-30T02:38:41;13.90;;;9.68;;
33579;SDS011;19909;43.644;-79.438;2023-09-30T02:41:08;11.00;;;8.65;;
33579;SDS011;19909;43.644;-79.438;2023-09-30T02:43:35;10.65;;;8.38;;
33579;SDS011;19909;43.644;-79.438;2023-09-30T02:46:01;11.75;;;8.20;;
33579;SDS011;19909;43.644;-79.438;2023-09-30T02:48:27;13.00;;;9.05;;
33579;SDS011;19909;43.644;-79.438;2023-09-30T02:50:54;10.48;;;8.60;;
33579;SDS011;19909;43.644;-79.438;2023-09-30T02:53:20;11.23;;;8.20;;
33579;SDS011;19909;43.644;-79.438;2023-09-30T02:55:47;9.65;;;7.90;;
33579;SDS011;19909;43.644;-79.438;2023-09-30T02:58:14;9.32;;;8.10;;
33579;SDS011;19909;43.644;-79.438;2023-09-30T03:00:41;10.32;;;8.25;;
33579;SDS011;19909;43.644;-79.438;2023-09-30T03:03:07;11.15;;;7.90;;
33579;SDS011;19909;43.644;-79.438;2023-09-30T03:05:33;10.88;;;8.80;;
33579;SDS011;19909;43.644;-79.438;2023-09-30T03:08:00;10.30;;;8.27;;
33579;SDS011;19909;43.644;-79.438;2023-09-30T03:10:26;11.02;;;8.20;;
33579;SDS011;19909;43.644;-79.438;2023-09-30T03:12:53;11.40;;;8.48;;
33579;SDS011;19909;43.644;-79.438;2023-09-30T03:15:19;12.10;;;7.70;;
33579;SDS011;19909;43.644;-79.438;2023-09-30T03:17:45;9.80;;;8.45;;
33579;SDS011;19909;43.644;-79.438;2023-09-30T03:20:12;10.60;;;7.93;;
33579;SDS011;19909;43.644;-79.438;2023-09-30T03:22:39;11.75;;;8.98;;
33579;SDS011;19909;43.644;-79.438;2023-09-30T03:27:40;10.82;;;8.02;;
33579;SDS011;19909;43.644;-79.438;2023-09-30T03:30:07;13.30;;;8.55;;
33579;SDS011;19909;43.644;-79.438;2023-09-30T03:32:34;8.40;;;7.13;;
33579;SDS011;19909;43.644;-79.438;2023-09-30T03:35:07;9.55;;;7.80;;
33579;SDS011;19909;43.644;-79.438;2023-09-30T03:37:36;9.77;;;8.43;;
33579;SDS011;19909;43.644;-79.438;2023-09-30T03:40:03;10.02;;;7.95;;
33579;SDS011;19909;43.644;-79.438;2023-09-30T03:42:37;10.45;;;8.55;;
33579;SDS011;19909;43.644;-79.438;2023-09-30T03:45:05;10.15;;;8.35;;
33579;SDS011;19909;43.644;-79.438;2023-09-30T03:47:35;9.13;;;7.97;;
33579;SDS011;19909;43.644;-79.438;2023-09-30T03:50:03;9.73;;;8.18;;
33579;SDS011;19909;43.644;-79.438;2023-09-30T03:52:33;9.52;;;7.93;;
33579;SDS011;19909;43.644;-79.438;2023-09-30T03:54:59;10.40;;;8.13;;
33579;SDS011;19909;43.644;-79.438;2023-09-30T03:57:30;10.50;;;8.55;;
33579;SDS011;19909;43.644;-79.438;2023-09-30T03:59:57;9.95;;;8.48;;
33579;SDS011;19909;43.644;-79.438;2023-09-30T04:02:23;10.00;;;7.85;;
33579;SDS011;19909;43.644;-79.438;2023-09-30T04:04:49;9.63;;;8.50;;
33579;SDS011;19909;43.644;-79.438;2023-09-30T04:07:18;9.32;;;8.00;;
33579;SDS011;19909;43.644;-79.438;2023-09-30T04:09:46;10.77;;;8.60;;
33579;SDS011;19909;43.644;-79.438;2023-09-30T04:12:12;9.10;;;8.20;;
33579;SDS011;19909;43.644;-79.438;2023-09-30T04:14:39;12.15;;;8.32;;
33579;SDS011;19909;43.644;-79.438;2023-09-30T04:17:05;11.32;;;8.60;;
33579;SDS011;19909;43.644;-79.438;2023-09-30T04:19:31;9.40;;;8.40;;
33579;SDS011;19909;43.644;-79.438;2023-09-30T04:21:58;9.18;;;7.88;;
33579;SDS011;19909;43.644;-79.438;2023-09-30T04:24:25;11.52;;;8.45;;
33579;SDS011;19909;43.644;-79.438;2023-09-30T04:26:53;9.38;;;8.00;;
33579;SDS011;19909;43.644;-79.438;2023-09-30T04:29:22;10.75;;;8.25;;
33579;SDS011;19909;43.644;-79.438;2023-09-30T04:31:49;8.95;;;7.57;;
33579;SDS011;19909;43.644;-79.438;2023-09-30T04:34:15;10.55;;;8.32;;
33579;SDS011;19909;43.644;-79.438;2023-09-30T04:36:41;8.55;;;7.32;;
33579;SDS011;19909;43.644;-79.438;2023-09-30T04:39:07;9.50;;;7.93;;
33579;SDS011;19909;43.644;-79.438;2023-09-30T04:41:33;9.68;;;7.70;;
33579;SDS011;19909;43.644;-79.438;2023-09-30T04:43:59;12.38;;;8.57;;
33579;SDS011;19909;43.644;-79.438;2023-09-30T04:46:25;10.27;;;8.13;;
33579;SDS011;19909;43.644;-79.438;2023-09-30T04:48:53;9.23;;;7.50;;
33579;SDS011;19909;43.644;-79.438;2023-09-30T04:51:19;10.30;;;7.50;;
33579;SDS011;19909;43.644;-79.438;2023-09-30T04:53:45;9.88;;;7.53;;
33579;SDS011;19909;43.644;-79.438;2023-09-30T04:56:12;8.57;;;7.32;;
33579;SDS011;19909;43.644;-79.438;2023-09-30T04:58:39;10.30;;;8.65;;
33579;SDS011;19909;43.644;-79.438;2023-09-30T05:01:05;9.07;;;7.72;;
33579;SDS011;19909;43.644;-79.438;2023-09-30T05:03:34;8.95;;;7.65;;
33579;SDS011;19909;43.644;-79.438;2023-09-30T05:06:00;9.82;;;8.20;;
33579;SDS011;19909;43.644;-79.438;2023-09-30T05:08:28;8.77;;;7.20;;
33579;SDS011;19909;43.644;-79.438;2023-09-30T05:10:54;10.95;;;7.72;;
33579;SDS011;19909;43.644;-79.438;2023-09-30T05:13:21;9.77;;;7.00;;
33579;SDS011;19909;43.644;-79.438;2023-09-30T05:15:49;8.13;;;7.13;;
33579;SDS011;19909;43.644;-79.438;2023-09-30T05:18:16;10.63;;;8.48;;
33579;SDS011;19909;43.644;-79.438;2023-09-30T05:20:43;8.75;;;7.68;;
33579;SDS011;19909;43.644;-79.438;2023-09-30T05:23:09;11.10;;;8.10;;
33579;SDS011;19909;43.644;-79.438;2023-09-30T05:25:37;11.20;;;8.23;;
33579;SDS011;19909;43.644;-79.438;2023-09-30T05:28:05;10.25;;;8.05;;
33579;SDS011;19909;43.644;-79.438;2023-09-30T05:30:34;9.93;;;8.15;;
33579;SDS011;19909;43.644;-79.438;2023-09-30T05:33:01;10.52;;;7.88;;
33579;SDS011;19909;43.644;-79.438;2023-09-30T05:35:28;9.43;;;8.20;;
33579;SDS011;19909;43.644;-79.438;2023-09-30T05:37:57;8.75;;;7.85;;
33579;SDS011;19909;43.644;-79.438;2023-09-30T05:40:23;10.30;;;8.30;;
33579;SDS011;19909;43.644;-79.438;2023-09-30T05:42:56;8.80;;;7.60;;
33579;SDS011;19909;43.644;-79.438;2023-09-30T05:45:23;8.43;;;7.40;;
33579;SDS011;19909;43.644;-79.438;2023-09-30T05:47:51;9.18;;;8.23;;
33579;SDS011;19909;43.644;-79.438;2023-09-30T05:50:19;8.68;;;7.72;;
33579;SDS011;19909;43.644;-79.438;2023-09-30T05:52:55;12.32;;;8.27;;
33579;SDS011;19909;43.644;-79.438;2023-09-30T05:55:21;9.63;;;8.40;;
33579;SDS011;19909;43.644;-79.438;2023-09-30T05:57:49;11.13;;;8.10;;
33579;SDS011;19909;43.644;-79.438;2023-09-30T06:00:17;9.15;;;8.18;;
33579;SDS011;19909;43.644;-79.438;2023-09-30T06:02:54;10.07;;;8.50;;
33579;SDS011;19909;43.644;-79.438;2023-09-30T06:05:21;9.27;;;7.78;;
33579;SDS011;19909;43.644;-79.438;2023-09-30T06:07:52;7.75;;;6.90;;
33579;SDS011;19909;43.644;-79.438;2023-09-30T06:10:19;9.07;;;7.70;;
33579;SDS011;19909;43.644;-79.438;2023-09-30T06:12:46;8.02;;;7.22;;
33579;SDS011;19909;43.644;-79.438;2023-09-30T06:15:24;8.95;;;7.90;;
33579;SDS011;19909;43.644;-79.438;2023-09-30T06:17:56;8.48;;;7.45;;
33579;SDS011;19909;43.644;-79.438;2023-09-30T06:20:25;9.55;;;7.97;;
33579;SDS011;19909;43.644;-79.438;2023-09-30T06:22:52;8.95;;;7.90;;
33579;SDS011;19909;43.644;-79.438;2023-09-30T06:25:21;9.40;;;7.40;;
33579;SDS011;19909;43.644;-79.438;2023-09-30T06:27:49;7.97;;;7.13;;
33579;SDS011;19909;43.644;-79.438;2023-09-30T06:30:16;8.95;;;8.05;;
33579;SDS011;19909;43.644;-79.438;2023-09-30T06:32:43;9.40;;;7.25;;
33579;SDS011;19909;43.644;-79.438;2023-09-30T06:35:10;8.13;;;7.32;;
33579;SDS011;19909;43.644;-79.438;2023-09-30T06:37:37;9.57;;;8.48;;
33579;SDS011;19909;43.644;-79.438;2023-09-30T06:40:05;9.57;;;7.57;;
33579;SDS011;19909;43.644;-79.438;2023-09-30T06:42:37;10.00;;;7.90;;
33579;SDS011;19909;43.644;-79.438;2023-09-30T06:45:05;9.25;;;7.15;;
33579;SDS011;19909;43.644;-79.438;2023-09-30T06:47:33;8.88;;;7.97;;
33579;SDS011;19909;43.644;-79.438;2023-09-30T06:50:03;8.90;;;7.82;;
33579;SDS011;19909;43.644;-79.438;2023-09-30T06:52:34;9.07;;;8.13;;
33579;SDS011;19909;43.644;-79.438;2023-09-30T06:55:01;10.65;;;7.70;;
33579;SDS011;19909;43.644;-79.438;2023-09-30T06:57:31;9.40;;;7.85;;
33579;SDS011;19909;43.644;-79.438;2023-09-30T06:59:57;10.23;;;8.38;;
33579;SDS011;19909;43.644;-79.438;2023-09-30T07:02:24;9.25;;;7.75;;
33579;SDS011;19909;43.644;-79.438;2023-09-30T07:04:50;9.35;;;8.30;;
33579;SDS011;19909;43.644;-79.438;2023-09-30T07:07:17;9.10;;;7.25;;
33579;SDS011;19909;43.644;-79.438;2023-09-30T07:09:43;8.35;;;7.10;;
33579;SDS011;19909;43.644;-79.438;2023-09-30T07:12:09;8.32;;;7.47;;
33579;SDS011;19909;43.644;-79.438;2023-09-30T07:14:36;10.00;;;8.05;;
33579;SDS011;19909;43.644;-79.438;2023-09-30T07:17:02;9.82;;;7.88;;
33579;SDS011;19909;43.644;-79.438;2023-09-30T07:19:29;9.63;;;8.60;;
33579;SDS011;19909;43.644;-79.438;2023-09-30T07:21:56;8.35;;;7.45;;
33579;SDS011;19909;43.644;-79.438;2023-09-30T07:24:22;8.00;;;7.20;;
33579;SDS011;19909;43.644;-79.438;2023-09-30T07:26:48;9.93;;;7.60;;
33579;SDS011;19909;43.644;-79.438;2023-09-30T07:29:14;10.88;;;8.10;;
33579;SDS011;19909;43.644;-79.438;2023-09-30T07:31:40;10.25;;;7.63;;
33579;SDS011;19909;43.644;-79.438;2023-09-30T07:34:06;9.18;;;7.68;;
33579;SDS011;19909;43.644;-79.438;2023-09-30T07:36:33;8.23;;;7.30;;
33579;SDS011;19909;43.644;-79.438;2023-09-30T07:38:59;8.50;;;7.30;;
33579;SDS011;19909;43.644;-79.438;2023-09-30T07:41:26;9.90;;;7.82;;
33579;SDS011;19909;43.644;-79.438;2023-09-30T07:43:52;9.15;;;7.78;;
33579;SDS011;19909;43.644;-79.438;2023-09-30T07:46:18;8.15;;;7.35;;
33579;SDS011;19909;43.644;-79.438;2023-09-30T07:48:44;10.32;;;8.65;;
33579;SDS011;19909;43.644;-79.438;2023-09-30T07:51:11;9.30;;;7.45;;
33579;SDS011;19909;43.644;-79.438;2023-09-30T07:53:39;10.02;;;7.40;;
33579;SDS011;19909;43.644;-79.438;2023-09-30T07:56:07;10.02;;;6.82;;
33579;SDS011;19909;43.644;-79.438;2023-09-30T07:58:33;9.32;;;8.00;;
33579;SDS011;19909;43.644;-79.438;2023-09-30T08:01:00;8.57;;;7.68;;
33579;SDS011;19909;43.644;-79.438;2023-09-30T08:03:29;8.52;;;7.55;;
33579;SDS011;19909;43.644;-79.438;2023-09-30T08:05:56;8.57;;;7.68;;
33579;SDS011;19909;43.644;-79.438;2023-09-30T08:08:23;9.13;;;7.65;;
33579;SDS011;19909;43.644;-79.438;2023-09-30T08:10:49;8.90;;;7.55;;
33579;SDS011;19909;43.644;-79.438;2023-09-30T08:13:20;10.85;;;7.82;;
33579;SDS011;19909;43.644;-79.438;2023-09-30T08:15:49;7.97;;;7.15;;
33579;SDS011;19909;43.644;-79.438;2023-09-30T08:18:16;8.27;;;7.45;;
33579;SDS011;19909;43.644;-79.438;2023-09-30T08:20:43;10.52;;;7.80;;
33579;SDS011;19909;43.644;-79.438;2023-09-30T08:23:09;7.57;;;6.78;;
33579;SDS011;19909;43.644;-79.438;2023-09-30T08:25:37;10.13;;;7.03;;
33579;SDS011;19909;43.644;-79.438;2023-09-30T08:28:03;9.45;;;7.60;;
33579;SDS011;19909;43.644;-79.438;2023-09-30T08:30:30;9.80;;;7.10;;
33579;SDS011;19909;43.644;-79.438;2023-09-30T08:32:58;10.60;;;7.60;;
33579;SDS011;19909;43.644;-79.438;2023-09-30T08:35:24;8.82;;;7.35;;
33579;SDS011;19909;43.644;-79.438;2023-09-30T08:37:51;10.38;;;7.60;;
33579;SDS011;19909;43.644;-79.438;2023-09-30T08:40:20;10.23;;;6.95;;
33579;SDS011;19909;43.644;-79.438;2023-09-30T08:42:49;9.60;;;7.25;;
33579;SDS011;19909;43.644;-79.438;2023-09-30T08:45:18;9.98;;;7.63;;
33579;SDS011;19909;43.644;-79.438;2023-09-30T08:47:44;7.72;;;6.78;;
33579;SDS011;19909;43.644;-79.438;2023-09-30T08:50:16;8.02;;;7.22;;
33579;SDS011;19909;43.644;-79.438;2023-09-30T08:52:43;9.13;;;7.70;;
33579;SDS011;19909;43.644;-79.438;2023-09-30T08:55:10;9.35;;;7.60;;
33579;SDS011;19909;43.644;-79.438;2023-09-30T08:57:38;7.68;;;6.43;;
33579;SDS011;19909;43.644;-79.438;2023-09-30T09:00:06;8.15;;;6.82;;
33579;SDS011;19909;43.644;-79.438;2023-09-30T09:02:36;12.18;;;7.65;;
33579;SDS011;19909;43.644;-79.438;2023-09-30T09:05:03;7.38;;;6.63;;
33579;SDS011;19909;43.644;-79.438;2023-09-30T09:07:30;8.13;;;7.32;;
33579;SDS011;19909;43.644;-79.438;2023-09-30T09:10:03;12.07;;;6.80;;
33579;SDS011;19909;43.644;-79.438;2023-09-30T09:12:31;8.48;;;7.50;;
33579;SDS011;19909;43.644;-79.438;2023-09-30T09:14:59;8.63;;;6.82;;
33579;SDS011;19909;43.644;-79.438;2023-09-30T09:17:34;12.45;;;7.65;;
33579;SDS011;19909;43.644;-79.438;2023-09-30T09:20:09;9.57;;;7.88;;
33579;SDS011;19909;43.644;-79.438;2023-09-30T09:22:46;11.05;;;6.97;;
33579;SDS011;19909;43.644;-79.438;2023-09-30T09:25:21;10.23;;;7.10;;
33579;SDS011;19909;43.644;-79.438;2023-09-30T09:27:48;7.90;;;6.90;;
33579;SDS011;19909;43.644;-79.438;2023-09-30T09:30:16;10.18;;;6.45;;
33579;SDS011;19909;43.644;-79.438;2023-09-30T09:35:34;8.60;;;6.80;;
33579;SDS011;19909;43.644;-79.438;2023-09-30T09:38:01;8.07;;;7.22;;
33579;SDS011;19909;43.644;-79.438;2023-09-30T09:40:29;8.57;;;6.95;;
33579;SDS011;19909;43.644;-79.438;2023-09-30T09:42:57;9.73;;;7.38;;
33579;SDS011;19909;43.644;-79.438;2023-09-30T09:45:28;9.82;;;7.68;;
33579;SDS011;19909;43.644;-79.438;2023-09-30T09:50:24;7.80;;;6.93;;
33579;SDS011;19909;43.644;-79.438;2023-09-30T09:52:51;8.68;;;7.20;;
33579;SDS011;19909;43.644;-79.438;2023-09-30T09:55:20;8.20;;;7.40;;
33579;SDS011;19909;43.644;-79.438;2023-09-30T09:57:48;7.88;;;6.75;;
33579;SDS011;19909;43.644;-79.438;2023-09-30T10:00:19;8.60;;;6.80;;
33579;SDS011;19909;43.644;-79.438;2023-09-30T10:02:50;7.50;;;6.70;;
33579;SDS011;19909;43.644;-79.438;2023-09-30T10:05:19;8.18;;;7.18;;
33579;SDS011;19909;43.644;-79.438;2023-09-30T10:10:18;8.02;;;7.22;;
33579;SDS011;19909;43.644;-79.438;2023-09-30T10:12:45;9.48;;;7.30;;
33579;SDS011;19909;43.644;-79.438;2023-09-30T10:17:59;7.72;;;6.70;;
33579;SDS011;19909;43.644;-79.438;2023-09-30T10:20:30;8.07;;;6.40;;
33579;SDS011;19909;43.644;-79.438;2023-09-30T10:25:42;8.50;;;6.97;;
33579;SDS011;19909;43.644;-79.438;2023-09-30T10:36:26;11.15;;;7.35;;
33579;SDS011;19909;43.644;-79.438;2023-09-30T10:38:57;8.07;;;6.82;;
33579;SDS011;19909;43.644;-79.438;2023-09-30T10:46:50;6.95;;;6.25;;
33579;SDS011;19909;43.644;-79.438;2023-09-30T10:49:43;7.75;;;6.75;;
33579;SDS011;19909;43.644;-79.438;2023-09-30T10:52:09;7.22;;;6.53;;
33579;SDS011;19909;43.644;-79.438;2023-09-30T10:54:35;8.80;;;6.65;;
33579;SDS011;19909;43.644;-79.438;2023-09-30T10:57:01;6.75;;;6.05;;
33579;SDS011;19909;43.644;-79.438;2023-09-30T10:59:29;7.22;;;6.43;;
33579;SDS011;19909;43.644;-79.438;2023-09-30T11:01:55;6.85;;;6.00;;
33579;SDS011;19909;43.644;-79.438;2023-09-30T11:04:22;7.60;;;6.88;;
33579;SDS011;19909;43.644;-79.438;2023-09-30T11:06:48;6.55;;;5.85;;
33579;SDS011;19909;43.644;-79.438;2023-09-30T11:09:21;6.95;;;5.90;;
33579;SDS011;19909;43.644;-79.438;2023-09-30T11:14:19;7.35;;;6.60;;
33579;SDS011;19909;43.644;-79.438;2023-09-30T11:16:47;7.50;;;6.35;;
33579;SDS011;19909;43.644;-79.438;2023-09-30T11:19:14;8.27;;;6.90;;
33579;SDS011;19909;43.644;-79.438;2023-09-30T11:21:41;6.88;;;6.15;;
33579;SDS011;19909;43.644;-79.438;2023-09-30T11:24:09;7.90;;;6.30;;
33579;SDS011;19909;43.644;-79.438;2023-09-30T11:26:36;7.70;;;6.40;;
33579;SDS011;19909;43.644;-79.438;2023-09-30T11:29:06;6.72;;;6.03;;
33579;SDS011;19909;43.644;-79.438;2023-09-30T11:31:34;7.97;;;6.38;;
33579;SDS011;19909;43.644;-79.438;2023-09-30T11:34:03;6.88;;;6.18;;
33579;SDS011;19909;43.644;-79.438;2023-09-30T11:36:34;7.45;;;6.22;;
33579;SDS011;19909;43.644;-79.438;2023-09-30T11:39:01;6.90;;;6.10;;
33579;SDS011;19909;43.644;-79.438;2023-09-30T11:41:38;6.18;;;5.25;;
33579;SDS011;19909;43.644;-79.438;2023-09-30T11:44:12;7.55;;;6.55;;
33579;SDS011;19909;43.644;-79.438;2023-09-30T11:46:53;5.93;;;5.32;;
33579;SDS011;19909;43.644;-79.438;2023-09-30T11:49:24;6.70;;;6.00;;
33579;SDS011;19909;43.644;-79.438;2023-09-30T11:52:01;7.07;;;5.57;;
33579;SDS011;19909;43.644;-79.438;2023-09-30T11:54:30;7.53;;;5.82;;
33579;SDS011;19909;43.644;-79.438;2023-09-30T11:56:58;7.55;;;5.95;;
33579;SDS011;19909;43.644;-79.438;2023-09-30T11:59:30;5.88;;;5.30;;
33579;SDS011;19909;43.644;-79.438;2023-09-30T12:01:57;6.68;;;6.07;;
33579;SDS011;19909;43.644;-79.438;2023-09-30T12:04:24;6.25;;;5.43;;
33579;SDS011;19909;43.644;-79.438;2023-09-30T12:06:50;7.18;;;5.70;;
33579;SDS011;19909;43.644;-79.438;2023-09-30T12:09:17;6.57;;;5.57;;
33579;SDS011;19909;43.644;-79.438;2023-09-30T12:11:51;6.75;;;5.70;;
33579;SDS011;19909;43.644;-79.438;2023-09-30T12:14:18;6.10;;;5.50;;
33579;SDS011;19909;43.644;-79.438;2023-09-30T12:16:46;6.10;;;5.50;;
33579;SDS011;19909;43.644;-79.438;2023-09-30T12:19:22;7.03;;;5.63;;
33579;SDS011;19909;43.644;-79.438;2023-09-30T12:21:48;6.07;;;5.50;;
33579;SDS011;19909;43.644;-79.438;2023-09-30T12:24:15;6.50;;;5.90;;
33579;SDS011;19909;43.644;-79.438;2023-09-30T12:26:46;5.60;;;5.07;;
33579;SDS011;19909;43.644;-79.438;2023-09-30T12:29:19;8.45;;;5.47;;
33579;SDS011;19909;43.644;-79.438;2023-09-30T12:31:53;6.38;;;5.55;;
33579;SDS011;19909;43.644;-79.438;2023-09-30T12:36:45;5.63;;;5.13;;
33579;SDS011;19909;43.644;-79.438;2023-09-30T12:39:12;5.63;;;4.68;;
33579;SDS011;19909;43.644;-79.438;2023-09-30T12:41:42;7.95;;;5.88;;
33579;SDS011;19909;43.644;-79.438;2023-09-30T12:44:09;6.50;;;5.40;;
33579;SDS011;19909;43.644;-79.438;2023-09-30T12:46:36;6.82;;;6.07;;
33579;SDS011;19909;43.644;-79.438;2023-09-30T12:49:04;7.30;;;5.78;;
33579;SDS011;19909;43.644;-79.438;2023-09-30T12:51:32;9.48;;;5.70;;
33579;SDS011;19909;43.644;-79.438;2023-09-30T12:54:04;6.15;;;5.55;;
33579;SDS011;19909;43.644;-79.438;2023-09-30T12:56:30;8.05;;;6.40;;
33579;SDS011;19909;43.644;-79.438;2023-09-30T12:58:57;6.60;;;5.57;;
33579;SDS011;19909;43.644;-79.438;2023-09-30T13:01:24;7.68;;;5.40;;
33579;SDS011;19909;43.644;-79.438;2023-09-30T13:03:50;6.05;;;5.45;;
33579;SDS011;19909;43.644;-79.438;2023-09-30T13:06:17;7.47;;;5.75;;
33579;SDS011;19909;43.644;-79.438;2023-09-30T13:08:44;5.15;;;4.65;;
33579;SDS011;19909;43.644;-79.438;2023-09-30T13:11:10;7.13;;;5.10;;
33579;SDS011;19909;43.644;-79.438;2023-09-30T13:13:37;7.90;;;5.75;;
33579;SDS011;19909;43.644;-79.438;2023-09-30T13:16:03;8.52;;;5.93;;
33579;SDS011;19909;43.644;-79.438;2023-09-30T13:18:36;7.40;;;5.38;;
33579;SDS011;19909;43.644;-79.438;2023-09-30T13:21:02;5.97;;;5.38;;
33579;SDS011;19909;43.644;-79.438;2023-09-30T13:23:31;8.18;;;5.40;;
33579;SDS011;19909;43.644;-79.438;2023-09-30T13:25:57;6.25;;;4.78;;
33579;SDS011;19909;43.644;-79.438;2023-09-30T13:28:23;7.03;;;6.00;;
33579;SDS011;19909;43.644;-79.438;2023-09-30T13:30:49;6.50;;;5.88;;
33579;SDS011;19909;43.644;-79.438;2023-09-30T13:33:16;6.57;;;5.40;;
33579;SDS011;19909;43.644;-79.438;2023-09-30T13:35:44;5.30;;;4.80;;
33579;SDS011;19909;43.644;-79.438;2023-09-30T13:38:11;7.40;;;5.03;;
33579;SDS011;19909;43.644;-79.438;2023-09-30T13:40:37;6.45;;;5.10;;
33579;SDS011;19909;43.644;-79.438;2023-09-30T13:43:05;7.20;;;5.53;;
33579;SDS011;19909;43.644;-79.438;2023-09-30T13:45:31;5.70;;;5.03;;
33579;SDS011;19909;43.644;-79.438;2023-09-30T13:47:57;6.40;;;5.80;;
33579;SDS011;19909;43.644;-79.438;2023-09-30T13:50:23;6.57;;;4.78;;
33579;SDS011;19909;43.644;-79.438;2023-09-30T13:52:49;6.82;;;5.47;;
33579;SDS011;19909;43.644;-79.438;2023-09-30T13:55:15;6.47;;;5.05;;
33579;SDS011;19909;43.644;-79.438;2023-09-30T13:57:47;5.90;;;5.25;;
33579;SDS011;19909;43.644;-79.438;2023-09-30T14:00:14;6.32;;;5.05;;
33579;SDS011;19909;43.644;-79.438;2023-09-30T14:02:41;5.78;;;5.25;;
33579;SDS011;19909;43.644;-79.438;2023-09-30T14:05:08;6.32;;;4.90;;
33579;SDS011;19909;43.644;-79.438;2023-09-30T14:07:35;5.85;;;5.25;;
33579;SDS011;19909;43.644;-79.438;2023-09-30T14:10:02;5.57;;;4.60;;
33579;SDS011;19909;43.644;-79.438;2023-09-30T14:12:29;6.63;;;4.72;;
33579;SDS011;19909;43.644;-79.438;2023-09-30T14:14:56;5.60;;;4.80;;
33579;SDS011;19909;43.644;-79.438;2023-09-30T14:17:22;4.72;;;4.20;;
33579;SDS011;19909;43.644;-79.438;2023-09-30T14:19:50;5.00;;;4.47;;
33579;SDS011;19909;43.644;-79.438;2023-09-30T14:22:17;5.88;;;5.28;;
33579;SDS011;19909;43.644;-79.438;2023-09-30T14:24:43;4.85;;;4.45;;
33579;SDS011;19909;43.644;-79.438;2023-09-30T14:27:10;4.88;;;4.38;;
33579;SDS011;19909;43.644;-79.438;2023-09-30T14:29:39;7.55;;;5.07;;
33579;SDS011;19909;43.644;-79.438;2023-09-30T14:32:05;5.40;;;4.50;;
33579;SDS011;19909;43.644;-79.438;2023-09-30T14:34:32;6.63;;;4.25;;
33579;SDS011;19909;43.644;-79.438;2023-09-30T14:36:58;7.70;;;4.88;;
33579;SDS011;19909;43.644;-79.438;2023-09-30T14:39:24;5.65;;;4.95;;
33579;SDS011;19909;43.644;-79.438;2023-09-30T14:41:52;4.95;;;4.40;;
33579;SDS011;19909;43.644;-79.438;2023-09-30T14:44:18;5.20;;;4.32;;
33579;SDS011;19909;43.644;-79.438;2023-09-30T14:46:47;5.22;;;4.30;;
33579;SDS011;19909;43.644;-79.438;2023-09-30T14:49:13;6.15;;;4.80;;
33579;SDS011;19909;43.644;-79.438;2023-09-30T14:51:40;5.43;;;4.18;;
33579;SDS011;19909;43.644;-79.438;2023-09-30T14:54:06;4.90;;;4.40;;
33579;SDS011;19909;43.644;-79.438;2023-09-30T14:56:32;4.70;;;4.00;;
33579;SDS011;19909;43.644;-79.438;2023-09-30T14:58:58;4.82;;;4.32;;